Tuesday, May 03, 2016
10:36 UTC
  |  Log In   |  Register Free
Airport Search:

Powell Municipal Airport
(KPOY)

Powell Municipal Airport Diagram
No Airport Diagram Available

FAA data valid effective Mar 31 2016 - May 26 2016 (unless otherwise noted).

 
 
 
 
 
 
 
 
 
 
 
 
 
 
Current Aviation Weather for KPOY

Weather Summary


The most recent METAR observation for POY was updated at: 12:55 UTC
METAR for KPOY is not available. Closest METAR is for KU68
KPOY  (most recent observation was updatred at 31:01 UTC)
031015Z AUTO 29005KT 10SM CLR 07/M03 A3017 RMK AO2

KU68  (15.0 nm SW)   (most recent observation was updated at 31:01 UTC)
031015Z AUTO 00000KT 10SM CLR 05/M02 A3016 RMK AO2

KCOD  (23.1 nm NE)   (most recent observation was updated at 31:01 UTC)
031015Z AUTO 22005KT 10SM CLR 08/M01 A3018 RMK AO1

TAF for KPOY is not available.
KCOD  (23.1 nm NE)   (most recent observation was updatred at 30:53 UTC)
030532Z 0306/0406 20007KT P6SM SKC FM031700 12007KT P6SM FEW080 FM040300 21006KT P6SM SKC AMD LTD TO CLD VIS AND WIND


GlobalAir.com is loading additional information.
 Current Weather at POY
43.0 F° (6.0 C°)

West winds at 9.2 mph
Pressure:
30.16 in
Humidity:
53%
Wind:
West at 9.2 mph
Dew Point:
26.6 F° (-3.0 C°)
Visibility:
10.00 mi
POY NOAA Radar




Find All Airport Services Find A Hotel Find A Rental Car Find A Golf Course Find A Restaurant $100 Hamburger



Airport Weather Forecast for KPOY

Translated METAR for KPOY (1015 UTC)
METAR:
KPOY 031015Z AUTO 29005KT 10SM CLR 07/M03 A3017 RMK AO2
Conditions at:
KPOY (Powell Muni, WY) observed 1015 UTC 03 May 2016
Temperature:
7°C (44.6°F)
Dewpoint:
-3°C (26.6°F) [RH = 49]
Pressure:
30.17 inches Hg (1021.7 mb)
Winds:
from the WNW (290 degrees) at 5.8 mph (5 knots: 2.6 m/s)
Visibility:
10 mile(s)
Ceiling:
at least 12,000 feet AGL
Clouds:
Clear below 12,000 feet AGL
Remarks:
site is un-manned
site is automated and HAS a precipitation sensor

Translated TAF for KCOD (Yellowstone Rgnl, WY) (0532 UTC)
TAF text:
KCOD 030532Z 0306/0406 20007KT P6SM SKC
Forecast period:
Tuesday May 03 2016 06:00 UTC - Wednesday May 04 2016 06:00 UTC
Forecast type:
FROM: standard forecast or significant change
Winds:
from the SSW (200 degrees) at 8.1 mph (7 knots: 3.6 m/s)
Visibility:
6 or more mile(s) (9.7+ km)
Ceiling:
at least 12,000 feet AGL
Clouds:
Clear Skies
Weather:
no significant weather observed at this time
TAF text:
FM031700 12007KT P6SM FEW080
Forecast period:
Tuesday May 03 2016 17:00 UTC - Wednesday May 04 2016 03:00 UTC
Forecast type:
FROM: standard forecast or significant change
Winds:
from the ESE (120 degrees) at 8.1 mph (7 knots: 3.6 m/s)
Visibility:
6 or more mile(s) (9.7+ km)
Ceiling:
at least 12,000 feet AGL
Clouds:
Few Clouds at 8,000 feet AGL
Weather:
no significant weather observed at this time
TAF text:
FM040300 21006KT P6SM SKC LTD TO CLD VIS AND WIND
Forecast period:
Wednesday May 04 2016 03:00 UTC - Wednesday May 04 2016 06:00 UTC
Forecast type:
FROM: standard forecast or significant change
Winds:
from the SSW (210 degrees) at 6.9 mph (6 knots: 3.1 m/s)
Visibility:
6 or more mile(s) (9.7+ km)
Ceiling:
at least 12,000 feet AGL
Clouds:
Clear Skies
Weather:
no significant weather observed at this time
FBO's on the Field
FBO Company Facility Photos Services Transportation Aviation Fuel Prices: Prices include tax
Catering Weather Repair Courtesy Rental Type 100LL JetA JetA+ MOGAS 8087
 
City of Powell

This FBO has not yet been rated
FS:Independent
Last Updated: Apr-06
Login to update fuel prices
SS:
Contact City of PowellMore FBO Information
 
Add another FBO Facility Photos Catering Weather Repair Courtesy Rental Type 100LL JetA JetA+ MOGAS 8087
Services Transportation Aviation Fuel Prices: Prices include tax


model-print
model-print
model-print
model-print